Time,TemperatureF,DewpointF,PressureIn,WindDirection,WindDirectionDegrees,WindSpeedMPH,WindSpeedGustMPH,Humidity,HourlyPrecipIn,Conditions,Clouds,dailyrainin,SoftwareType,DateUTC
2013-03-03 11:06:00,60.6,53.9,30.03,ESE,111,0.5,1.3,78,0.00,n/a,n/a,-99.99,Henriksen +1-Wire,2013-03-03 19:06:00,
2013-03-03 11:12:00,60.2,53.4,30.03,SSW,209,0.6,1.3,77,0.00,n/a,n/a,-99.99,Henriksen +1-Wire,2013-03-03 19:12:00,
2013-03-03 11:18:00,60.2,53.3,30.03,South,186,0.6,1.3,77,0.00,n/a,n/a,-99.99,Henriksen +1-Wire,2013-03-03 19:18:00,
2013-03-03 11:24:00,60.3,53.2,30.04,SW,232,0.6,1.9,77,0.00,n/a,n/a,-99.99,Henriksen +1-Wire,2013-03-03 19:24:00,
2013-03-03 11:30:00,60.5,53.3,30.03,ENE,61,0.6,1.9,76,0.00,n/a,n/a,-99.99,Henriksen +1-Wire,2013-03-03 19:30:00,
2013-03-03 11:36:00,60.9,53.5,30.03,WSW,258,0.5,2.6,76,0.00,n/a,n/a,-99.99,Henriksen +1-Wire,2013-03-03 19:36:00,
2013-03-03 11:42:00,61.3,53.7,30.03,SE,130,0.6,2.6,75,0.00,n/a,n/a,-99.99,Henriksen +1-Wire,2013-03-03 19:42:00,
2013-03-03 11:48:00,61.8,53.9,30.04,WSW,252,1.1,4.5,75,0.00,n/a,n/a,-99.99,Henriksen +1-Wire,2013-03-03 19:48:00,
2013-03-03 11:54:00,62.0,54.0,30.04,WSW,240,1.1,4.5,74,0.00,n/a,n/a,-99.99,Henriksen +1-Wire,2013-03-03 19:54:00,
2013-03-03 12:00:00,62.1,53.9,30.04,SW,230,0.6,4.5,74,0.00,n/a,n/a,-99.99,Henriksen +1-Wire,2013-03-03 20:00:00,
2013-03-03 12:06:00,62.6,54.3,30.04,NW,310,1.8,4.5,74,0.00,n/a,n/a,-99.99,Henriksen +1-Wire,2013-03-03 20:06:00,
2013-03-03 12:12:00,63.2,54.8,30.03,West,272,2.8,5.2,73,0.00,n/a,n/a,-99.99,Henriksen +1-Wire,2013-03-03 20:12:00,
2013-03-03 12:18:00,63.6,54.9,30.03,NW,304,0.6,5.2,73,0.00,n/a,n/a,-99.99,Henriksen +1-Wire,2013-03-03 20:18:00,
2013-03-03 12:24:00,63.6,54.6,30.03,SSE,149,0.6,3.1,72,0.00,n/a,n/a,-99.99,Henriksen +1-Wire,2013-03-03 20:24:00,
2013-03-03 12:30:00,63.4,54.2,30.03,SW,233,0.6,2.6,71,0.00,n/a,n/a,-99.99,Henriksen +1-Wire,2013-03-03 20:30:00,
2013-03-03 12:36:00,63.0,54.0,30.02,SW,232,0.8,2.6,72,0.00,n/a,n/a,-99.99,Henriksen +1-Wire,2013-03-03 20:36:00,
2013-03-03 12:42:00,62.7,54.0,30.02,SE,131,0.6,2.6,72,0.00,n/a,n/a,-99.99,Henriksen +1-Wire,2013-03-03 20:42:00,
2013-03-03 12:48:00,62.6,54.2,30.02,SE,128,0.6,2.7,73,0.00,n/a,n/a,-99.99,Henriksen +1-Wire,2013-03-03 20:48:00,
2013-03-03 12:54:00,62.5,54.3,30.02,NW,305,0.7,1.9,74,0.00,n/a,n/a,-99.99,Henriksen +1-Wire,2013-03-03 20:54:00,
2013-03-03 13:00:00,62.5,54.4,30.02,ESE,106,0.6,1.9,74,0.00,n/a,n/a,-99.99,Henriksen +1-Wire,2013-03-03 21:00:00,
2013-03-03 13:06:00,62.6,54.5,30.02,South,182,1.3,5.8,74,0.00,n/a,n/a,-99.99,Henriksen +1-Wire,2013-03-03 21:06:00,
2013-03-03 13:12:00,62.9,54.7,30.01,South,183,0.7,5.8,74,0.00,n/a,n/a,-99.99,Henriksen +1-Wire,2013-03-03 21:12:00,
2013-03-03 13:18:00,63.1,54.8,30.01,SW,235,0.7,5.2,73,0.00,n/a,n/a,-99.99,Henriksen +1-Wire,2013-03-03 21:18:00,
2013-03-03 13:24:00,63.8,55.1,30.01,South,173,1.8,5.2,73,0.00,n/a,n/a,-99.99,Henriksen +1-Wire,2013-03-03 21:24:00,
2013-03-03 13:30:00,64.8,55.2,30.01,SW,217,1.1,5.2,70,0.00,n/a,n/a,-99.99,Henriksen +1-Wire,2013-03-03 21:30:00,
2013-03-03 13:36:00,65.0,54.9,30.01,South,177,3.5,6.4,69,0.00,n/a,n/a,-99.99,Henriksen +1-Wire,2013-03-03 21:36:00,
2013-03-03 13:42:00,64.8,54.2,30.01,SSW,194,0.6,6.4,68,0.00,n/a,n/a,-99.99,Henriksen +1-Wire,2013-03-03 21:42:00,
2013-03-03 13:48:00,64.6,53.8,30.01,South,170,0.8,2.6,67,0.00,n/a,n/a,-99.99,Henriksen +1-Wire,2013-03-03 21:48:00,
2013-03-03 13:54:00,64.9,53.8,30.01,SSE,155,0.6,2.6,66,0.00,n/a,n/a,-99.99,Henriksen +1-Wire,2013-03-03 21:54:00,
2013-03-03 14:00:00,64.9,53.5,30.01,SW,219,0.6,1.9,66,0.00,n/a,n/a,-99.99,Henriksen +1-Wire,2013-03-03 22:00:00,
2013-03-03 14:06:00,65.3,53.6,30.01,West,269,0.6,1.9,65,0.00,n/a,n/a,-99.99,Henriksen +1-Wire,2013-03-03 22:06:00,
2013-03-03 14:12:00,65.4,53.3,30.01,South,182,0.6,1.9,64,0.00,n/a,n/a,-99.99,Henriksen +1-Wire,2013-03-03 22:12:00,
2013-03-03 14:18:00,65.5,53.1,30.01,South,186,0.7,3.9,64,0.00,n/a,n/a,-99.99,Henriksen +1-Wire,2013-03-03 22:18:00,
2013-03-03 14:24:00,65.5,53.1,30.01,SSW,208,0.9,3.9,63,0.00,n/a,n/a,-99.99,Henriksen +1-Wire,2013-03-03 22:24:00,
2013-03-03 14:30:00,66.0,53.4,30.01,South,180,0.6,3.2,63,0.00,n/a,n/a,-99.99,Henriksen +1-Wire,2013-03-03 22:30:00,
2013-03-03 14:36:00,65.9,53.2,30.01,WSW,243,2.0,6.5,63,0.00,n/a,n/a,-99.99,Henriksen +1-Wire,2013-03-03 22:36:00,
2013-03-03 14:42:00,66.0,53.3,30.01,SW,236,2.9,6.5,63,0.00,n/a,n/a,-99.99,Henriksen +1-Wire,2013-03-03 22:42:00,
2013-03-03 14:48:00,66.2,53.4,30.01,SW,228,2.9,7.1,62,0.00,n/a,n/a,-99.99,Henriksen +1-Wire,2013-03-03 22:48:00,
2013-03-03 14:54:00,66.3,53.3,30.01,SW,225,2.1,5.8,62,0.00,n/a,n/a,-99.99,Henriksen +1-Wire,2013-03-03 22:54:00,
2013-03-03 15:00:00,66.3,53.2,30.00,SW,219,3.7,7.1,62,0.00,n/a,n/a,-99.99,Henriksen +1-Wire,2013-03-03 23:00:00,
2013-03-03 15:06:00,66.6,53.4,30.00,South,176,0.7,7.1,62,0.00,n/a,n/a,-99.99,Henriksen +1-Wire,2013-03-03 23:06:00,
2013-03-03 15:12:00,66.7,53.5,30.00,SSW,194,0.6,4.5,62,0.00,n/a,n/a,-99.99,Henriksen +1-Wire,2013-03-03 23:12:00,
2013-03-03 15:18:00,66.8,53.5,30.00,South,180,0.6,1.6,61,0.00,n/a,n/a,-99.99,Henriksen +1-Wire,2013-03-03 23:18:00,
2013-03-03 15:24:00,66.8,53.3,30.00,SW,217,0.6,1.9,61,0.00,n/a,n/a,-99.99,Henriksen +1-Wire,2013-03-03 23:24:00,
2013-03-03 15:30:00,66.9,53.1,30.00,SW,219,0.8,4.5,60,0.00,n/a,n/a,-99.99,Henriksen +1-Wire,2013-03-03 23:30:00,
2013-03-03 15:36:00,66.8,52.9,30.00,South,189,1.0,3.9,60,0.00,n/a,n/a,-99.99,Henriksen +1-Wire,2013-03-03 23:36:00,
2013-03-03 15:42:00,66.8,52.5,30.01,SW,226,0.8,4.5,59,0.00,n/a,n/a,-99.99,Henriksen +1-Wire,2013-03-03 23:42:00,
2013-03-03 15:48:00,66.6,52.0,30.00,SW,226,0.6,3.2,58,0.00,n/a,n/a,-99.99,Henriksen +1-Wire,2013-03-03 23:48:00,
2013-03-03 15:54:00,66.4,51.7,30.00,NW,312,0.6,1.3,58,0.00,n/a,n/a,-99.99,Henriksen +1-Wire,2013-03-03 23:54:00,
2013-03-03 16:00:00,66.3,51.6,30.00,NW,317,0.3,0.8,58,0.00,n/a,n/a,-99.99,Henriksen +1-Wire,2013-03-04 00:00:00,
2013-03-03 16:06:00,66.2,51.5,30.00,SSE,168,0.6,0.8,58,0.00,n/a,n/a,-99.99,Henriksen +1-Wire,2013-03-04 00:06:00,
2013-03-03 16:12:00,66.4,51.8,30.00,SSW,195,0.6,0.8,58,0.00,n/a,n/a,-99.99,Henriksen +1-Wire,2013-03-04 00:12:00,
2013-03-03 16:18:00,66.4,51.6,30.00,South,183,1.0,3.2,58,0.00,n/a,n/a,-99.99,Henriksen +1-Wire,2013-03-04 00:18:00,
2013-03-03 16:24:00,66.5,51.6,30.00,SW,231,0.7,2.7,58,0.00,n/a,n/a,-99.99,Henriksen +1-Wire,2013-03-04 00:24:00,
2013-03-03 16:30:00,66.5,51.7,30.00,SW,231,0.6,3.2,58,0.00,n/a,n/a,-99.99,Henriksen +1-Wire,2013-03-04 00:30:00,
2013-03-03 16:36:00,66.4,51.5,30.00,South,180,2.8,5.8,58,0.00,n/a,n/a,-99.99,Henriksen +1-Wire,2013-03-04 00:36:00,
2013-03-03 16:42:00,66.1,51.4,30.00,SW,232,1.1,5.8,58,0.00,n/a,n/a,-99.99,Henriksen +1-Wire,2013-03-04 00:42:00,
2013-03-03 16:48:00,66.1,51.5,30.00,SW,229,0.7,3.9,58,0.00,n/a,n/a,-99.99,Henriksen +1-Wire,2013-03-04 00:48:00,
2013-03-03 16:54:00,65.8,51.3,30.00,SSE,159,0.9,5.2,58,0.00,n/a,n/a,-99.99,Henriksen +1-Wire,2013-03-04 00:54:00,
2013-03-03 17:00:00,65.6,51.1,30.01,SSE,157,1.6,3.9,58,0.00,n/a,n/a,-99.99,Henriksen +1-Wire,2013-03-04 01:00:00,
2013-03-03 17:06:00,65.4,51.0,30.01,SE,135,1.1,5.0,59,0.00,n/a,n/a,-99.99,Henriksen +1-Wire,2013-03-04 01:06:00,
2013-03-03 17:12:00,65.0,50.9,30.01,South,181,1.8,5.8,59,0.00,n/a,n/a,-99.99,Henriksen +1-Wire,2013-03-04 01:12:00,
2013-03-03 17:18:00,64.5,50.8,30.01,South,172,0.7,5.8,60,0.00,n/a,n/a,-99.99,Henriksen +1-Wire,2013-03-04 01:18:00,
2013-03-03 17:24:00,64.1,50.8,30.01,SE,139,2.0,5.8,61,0.00,n/a,n/a,-99.99,Henriksen +1-Wire,2013-03-04 01:24:00,
2013-03-03 17:30:00,63.7,51.0,30.01,SE,132,2.8,5.8,63,0.00,n/a,n/a,-99.99,Henriksen +1-Wire,2013-03-04 01:30:00,
2013-03-03 17:36:00,63.3,51.4,30.01,SE,135,3.2,7.9,64,0.00,n/a,n/a,-99.99,Henriksen +1-Wire,2013-03-04 01:36:00,
2013-03-03 17:42:00,63.0,51.5,30.01,SE,128,1.3,7.9,65,0.00,n/a,n/a,-99.99,Henriksen +1-Wire,2013-03-04 01:42:00,
2013-03-03 17:48:00,62.7,51.4,30.01,SE,128,2.7,5.2,66,0.00,n/a,n/a,-99.99,Henriksen +1-Wire,2013-03-04 01:48:00,
2013-03-03 17:54:00,62.3,51.6,30.02,SE,135,1.4,5.8,67,0.00,n/a,n/a,-99.99,Henriksen +1-Wire,2013-03-04 01:54:00,
2013-03-03 18:00:00,62.0,52.3,30.02,SE,139,2.4,3.9,70,0.00,n/a,n/a,-99.99,Henriksen +1-Wire,2013-03-04 02:00:00,
2013-03-03 18:06:00,61.7,52.5,30.02,SE,125,2.9,4.9,71,0.00,n/a,n/a,-99.99,Henriksen +1-Wire,2013-03-04 02:06:00,
2013-03-03 18:12:00,61.4,52.9,30.02,SE,129,0.5,5.0,73,0.00,n/a,n/a,-99.99,Henriksen +1-Wire,2013-03-04 02:12:00,
2013-03-03 18:18:00,61.0,53.0,30.02,SE,131,2.6,5.0,74,0.00,n/a,n/a,-99.99,Henriksen +1-Wire,2013-03-04 02:18:00,
2013-03-03 18:24:00,60.8,53.1,30.02,ESE,122,1.5,4.5,75,0.00,n/a,n/a,-99.99,Henriksen +1-Wire,2013-03-04 02:24:00,
2013-03-03 18:30:00,60.5,53.0,30.02,SE,125,2.7,4.5,76,0.00,n/a,n/a,-99.99,Henriksen +1-Wire,2013-03-04 02:30:00,
2013-03-03 18:36:00,60.2,53.0,30.02,SE,130,2.4,4.5,76,0.00,n/a,n/a,-99.99,Henriksen +1-Wire,2013-03-04 02:36:00,
2013-03-03 18:42:00,59.9,52.9,30.02,ESE,121,2.7,5.8,77,0.00,n/a,n/a,-99.99,Henriksen +1-Wire,2013-03-04 02:42:00,
2013-03-03 18:48:00,59.7,52.8,30.02,ESE,111,3.2,5.2,77,0.00,n/a,n/a,-99.99,Henriksen +1-Wire,2013-03-04 02:48:00,
2013-03-03 18:54:00,59.5,52.8,30.02,SE,124,1.7,5.8,78,0.00,n/a,n/a,-99.99,Henriksen +1-Wire,2013-03-04 02:54:00,
2013-03-03 19:00:00,59.3,52.6,30.02,SE,132,2.2,4.1,78,0.00,n/a,n/a,-99.99,Henriksen +1-Wire,2013-03-04 03:00:00,
2013-03-03 19:06:00,59.0,52.5,30.02,SE,135,3.3,5.8,78,0.00,n/a,n/a,-99.99,Henriksen +1-Wire,2013-03-04 03:06:00,
2013-03-03 19:12:00,58.9,52.5,30.04,SE,139,3.0,5.8,78,0.00,n/a,n/a,-99.99,Henriksen +1-Wire,2013-03-04 03:12:00,
2013-03-03 19:18:00,58.9,52.4,30.03,SE,137,1.9,4.6,78,0.00,n/a,n/a,-99.99,Henriksen +1-Wire,2013-03-04 03:18:00,
2013-03-03 19:24:00,58.7,52.2,30.03,SSE,147,1.8,4.5,78,0.00,n/a,n/a,-99.99,Henriksen +1-Wire,2013-03-04 03:24:00,
2013-03-03 19:30:00,58.6,52.0,30.03,SSE,149,3.1,5.8,78,0.00,n/a,n/a,-99.99,Henriksen +1-Wire,2013-03-04 03:30:00,
2013-03-03 19:36:00,58.4,51.9,30.03,SSE,154,2.0,5.8,78,0.00,n/a,n/a,-99.99,Henriksen +1-Wire,2013-03-04 03:36:00,
2013-03-03 19:42:00,58.1,51.6,30.03,SE,139,1.5,6.5,78,0.00,n/a,n/a,-99.99,Henriksen +1-Wire,2013-03-04 03:42:00,
2013-03-03 19:48:00,57.6,51.2,30.03,SE,145,3.0,5.8,79,0.00,n/a,n/a,-99.99,Henriksen +1-Wire,2013-03-04 03:48:00,
2013-03-03 19:54:00,57.3,51.1,30.03,SSE,158,2.6,5.8,79,0.00,n/a,n/a,-99.99,Henriksen +1-Wire,2013-03-04 03:54:00,
2013-03-03 20:00:00,56.7,50.7,30.03,South,174,2.0,5.8,80,0.00,n/a,n/a,-99.99,Henriksen +1-Wire,2013-03-04 04:00:00,
2013-03-03 20:06:00,56.3,50.6,30.03,South,175,1.2,4.5,80,0.00,n/a,n/a,-99.99,Henriksen +1-Wire,2013-03-04 04:06:00,
2013-03-03 20:12:00,55.9,50.3,30.04,South,180,1.8,3.2,81,0.00,n/a,n/a,-99.99,Henriksen +1-Wire,2013-03-04 04:12:00,
2013-03-03 20:18:00,55.6,50.2,30.04,South,173,2.7,6.5,81,0.00,n/a,n/a,-99.99,Henriksen +1-Wire,2013-03-04 04:18:00,
2013-03-03 20:24:00,55.4,50.1,30.04,SSE,148,2.6,6.5,82,0.00,n/a,n/a,-99.99,Henriksen +1-Wire,2013-03-04 04:24:00,
2013-03-03 20:30:00,55.1,50.0,30.04,SSE,166,1.3,3.9,82,0.00,n/a,n/a,-99.99,Henriksen +1-Wire,2013-03-04 04:30:00,
2013-03-03 20:36:00,54.8,49.9,30.05,South,181,1.5,5.2,83,0.00,n/a,n/a,-99.99,Henriksen +1-Wire,2013-03-04 04:36:00,
2013-03-03 20:42:00,54.6,49.8,30.05,SSW,192,1.2,5.2,83,0.00,n/a,n/a,-99.99,Henriksen +1-Wire,2013-03-04 04:42:00,
2013-03-03 20:48:00,54.4,49.7,30.05,South,184,1.4,4.5,83,0.00,n/a,n/a,-99.99,Henriksen +1-Wire,2013-03-04 04:48:00,
2013-03-03 20:54:00,54.2,49.5,30.05,SSE,154,1.8,4.5,84,0.00,n/a,n/a,-99.99,Henriksen +1-Wire,2013-03-04 04:54:00,
2013-03-03 21:00:00,54.0,49.5,30.06,South,169,0.9,3.9,84,0.00,n/a,n/a,-99.99,Henriksen +1-Wire,2013-03-04 05:00:00,
2013-03-03 21:06:00,53.9,49.6,30.05,South,185,0.9,3.2,85,0.00,n/a,n/a,-99.99,Henriksen +1-Wire,2013-03-04 05:06:00,
2013-03-03 21:12:00,53.9,49.5,30.05,SE,139,0.6,3.2,85,0.00,n/a,n/a,-99.99,Henriksen +1-Wire,2013-03-04 05:12:00,
2013-03-03 21:18:00,53.8,49.5,30.06,SSE,147,0.7,1.9,85,0.00,n/a,n/a,-99.99,Henriksen +1-Wire,2013-03-04 05:18:00,
2013-03-03 21:24:00,53.7,49.5,30.05,South,191,1.5,3.9,85,0.00,n/a,n/a,-99.99,Henriksen +1-Wire,2013-03-04 05:24:00,
2013-03-03 21:30:00,53.7,49.5,30.03,South,178,1.9,4.5,85,0.00,n/a,n/a,-99.99,Henriksen +1-Wire,2013-03-04 05:30:00,
2013-03-03 21:36:00,53.6,49.4,30.02,SSE,147,2.0,4.5,85,0.00,n/a,n/a,-99.99,Henriksen +1-Wire,2013-03-04 05:36:00,
2013-03-03 21:42:00,53.5,49.3,30.02,SE,136,2.4,5.4,85,0.00,n/a,n/a,-99.99,Henriksen +1-Wire,2013-03-04 05:42:00,
2013-03-03 21:48:00,53.4,49.2,30.02,SSE,149,2.2,5.4,85,0.00,n/a,n/a,-99.99,Henriksen +1-Wire,2013-03-04 05:48:00,
2013-03-03 21:54:00,53.2,49.0,30.02,SE,144,0.8,5.8,85,0.00,n/a,n/a,-99.99,Henriksen +1-Wire,2013-03-04 05:54:00,
2013-03-03 22:00:00,53.0,48.8,30.02,SE,144,1.9,3.9,85,0.00,n/a,n/a,-99.99,Henriksen +1-Wire,2013-03-04 06:00:00,
2013-03-03 22:06:00,52.7,48.6,30.02,SSE,153,2.1,4.5,86,0.00,n/a,n/a,-99.99,Henriksen +1-Wire,2013-03-04 06:06:00,
2013-03-03 22:12:00,52.4,48.6,30.02,SE,144,2.2,4.5,86,0.00,n/a,n/a,-99.99,Henriksen +1-Wire,2013-03-04 06:12:00,
2013-03-03 22:18:00,52.2,48.4,30.02,SE,142,2.3,4.5,86,0.00,n/a,n/a,-99.99,Henriksen +1-Wire,2013-03-04 06:18:00,
2013-03-03 22:24:00,52.0,48.3,30.02,SSE,150,3.5,5.2,87,0.00,n/a,n/a,-99.99,Henriksen +1-Wire,2013-03-04 06:24:00,
2013-03-03 22:30:00,51.8,48.3,30.02,SE,146,2.3,5.2,87,0.00,n/a,n/a,-99.99,Henriksen +1-Wire,2013-03-04 06:30:00,
2013-03-03 22:36:00,51.6,48.1,30.02,SE,139,2.4,5.1,87,0.00,n/a,n/a,-99.99,Henriksen +1-Wire,2013-03-04 06:36:00,
2013-03-03 22:42:00,51.4,48.2,30.02,SSE,154,3.1,5.2,88,0.00,n/a,n/a,-99.99,Henriksen +1-Wire,2013-03-04 06:42:00,
2013-03-03 22:48:00,51.3,48.2,30.02,SE,146,3.2,5.2,88,0.00,n/a,n/a,-99.99,Henriksen +1-Wire,2013-03-04 06:48:00,
2013-03-03 22:54:00,51.1,47.9,30.01,SE,143,2.5,5.2,88,0.00,n/a,n/a,-99.99,Henriksen +1-Wire,2013-03-04 06:54:00,
2013-03-03 23:00:00,50.8,47.8,30.01,SE,140,0.8,5.2,89,0.00,n/a,n/a,-99.99,Henriksen +1-Wire,2013-03-04 07:00:00,
2013-03-03 23:06:00,50.6,47.6,30.01,SE,141,3.4,5.4,89,0.00,n/a,n/a,-99.99,Henriksen +1-Wire,2013-03-04 07:06:00,
2013-03-03 23:12:00,50.5,47.6,30.00,SE,137,3.5,5.8,89,0.00,n/a,n/a,-99.99,Henriksen +1-Wire,2013-03-04 07:12:00,
2013-03-03 23:18:00,50.3,47.5,29.99,SSE,149,2.1,4.5,90,0.00,n/a,n/a,-99.99,Henriksen +1-Wire,2013-03-04 07:18:00,
2013-03-03 23:24:00,50.1,47.5,29.99,SSE,150,2.5,4.5,90,0.00,n/a,n/a,-99.99,Henriksen +1-Wire,2013-03-04 07:24:00,
2013-03-03 23:30:00,49.9,47.4,29.99,SE,138,2.3,6.5,90,0.00,n/a,n/a,-99.99,Henriksen +1-Wire,2013-03-04 07:30:00,
2013-03-03 23:36:00,49.7,47.3,29.99,SSE,149,2.2,6.5,91,0.00,n/a,n/a,-99.99,Henriksen +1-Wire,2013-03-04 07:36:00,
2013-03-03 23:42:00,49.6,47.3,30.01,ESE,116,2.1,3.9,91,0.00,n/a,n/a,-99.99,Henriksen +1-Wire,2013-03-04 07:42:00,
2013-03-03 23:48:00,49.3,47.2,30.03,ESE,122,2.7,5.2,92,0.00,n/a,n/a,-99.99,Henriksen +1-Wire,2013-03-04 07:48:00,
2013-03-03 23:54:00,49.1,47.2,30.03,SE,138,2.9,5.8,92,0.00,n/a,n/a,-99.99,Henriksen +1-Wire,2013-03-04 07:54:00,